This is the latest recevied weather packets stored in our database for station/object WMKM. If no packets are shown the sender has not sent any weather packets the latest 10 day(s).
| Time | Temp. | Humidity | Pressure | Rain* | Wind** | Luminosity | Snow |
|---|---|---|---|---|---|---|---|
| 1778137850 | 31.67° C | 66% | 1006 hPa | - | - | - | - |
| 1778134251 | 32.78° C | 62% | 1007 hPa | - | - | - | - |
| 1778130651 | 31.67° C | 66% | 1008 hPa | - | - | - | - |
| 1778127065 | 31.67° C | 66% | 1009 hPa | - | - | - | - |
| 1778123449 | 30.56° C | 66% | 1009 hPa | - | - | - | - |
| 1778119851 | 30° C | 74% | 1009 hPa | - | - | - | - |
| 1778116250 | 26.67° C | 88% | 1009 hPa | - | - | - | - |
| 1778112664 | 25° C | 94% | 1008 hPa | - | - | - | - |
| 1778109049 | 23.89° C | 10% | - | - | - | - | - |
| 1778105450 | 23.89° C | 10% | - | - | - | - | - |
| 1778101850 | 23.89° C | 10% | - | - | - | - | - |
| 1778098264 | 25° C | 94% | 1007 hPa | - | - | - | - |
| 1778094648 | 25° C | 94% | 1008 hPa | - | - | - | - |
| 1778091050 | 25° C | 94% | 1008 hPa | - | - | - | - |
| 1778087449 | 25° C | 94% | 1009 hPa | - | - | - | - |
| 1778083863 | 25° C | 94% | 1010 hPa | - | - | - | - |
| 1778080254 | 25° C | 94% | 1010 hPa | - | - | - | - |
| 1778076650 | 25.56° C | 88% | 1009 hPa | - | - | - | - |
| 1778073049 | 25.56° C | 88% | 1008 hPa | - | - | - | - |
| 1778069461 | 26.67° C | 83% | 1008 hPa | - | - | - | - |
| 1778065848 | 28.89° C | 79% | 1007 hPa | - | - | - | - |
| 1778062249 | 30° C | 74% | 1006 hPa | - | - | - | - |
| 1778058649 | 28.89° C | 83% | 1006 hPa | - | - | - | - |
| 1778055049 | 30° C | 74% | 1005 hPa | - | - | - | - |
| 1778051463 | 31.67° C | 66% | 1006 hPa | - | - | - | - |
* Rain since midnight (hover to see other rain measurements)
** Current wind speed in m/s (hover to see current wind gust speed)